地図

経路データ

SID SEASON NUMBER BASIN SUBBASIN NAME ISO_TIME NATURE LAT LON WMO_WIND WMO_PRES WMO_AGENCY TRACK_TYPE DIST2LAND LANDFALL IFLAG USA_AGENCY USA_ATCF_ID USA_LAT USA_LON USA_RECORD USA_STATUS USA_WIND USA_PRES USA_SSHS USA_R34_NE USA_R34_SE USA_R34_SW USA_R34_NW USA_R50_NE USA_R50_SE USA_R50_SW USA_R50_NW USA_R64_NE USA_R64_SE USA_R64_SW USA_R64_NW USA_POCI USA_ROCI USA_RMW USA_EYE TOKYO_LAT TOKYO_LON TOKYO_GRADE TOKYO_WIND TOKYO_PRES TOKYO_R50_DIR TOKYO_R50_LONG TOKYO_R50_SHORT TOKYO_R30_DIR TOKYO_R30_LONG TOKYO_R30_SHORT TOKYO_LAND CMA_LAT CMA_LON CMA_CAT CMA_WIND CMA_PRES HKO_LAT HKO_LON HKO_CAT HKO_WIND HKO_PRES NEWDELHI_LAT NEWDELHI_LON NEWDELHI_GRADE NEWDELHI_WIND NEWDELHI_PRES NEWDELHI_CI NEWDELHI_DP NEWDELHI_POCI REUNION_LAT REUNION_LON REUNION_TYPE REUNION_WIND REUNION_PRES REUNION_TNUM REUNION_CI REUNION_RMW REUNION_R34_NE REUNION_R34_SE REUNION_R34_SW REUNION_R34_NW REUNION_R50_NE REUNION_R50_SE REUNION_R50_SW REUNION_R50_NW REUNION_R64_NE REUNION_R64_SE REUNION_R64_SW REUNION_R64_NW BOM_LAT BOM_LON BOM_TYPE BOM_WIND BOM_PRES BOM_TNUM BOM_CI BOM_RMW BOM_R34_NE BOM_R34_SE BOM_R34_SW BOM_R34_NW BOM_R50_NE BOM_R50_SE BOM_R50_SW BOM_R50_NW BOM_R64_NE BOM_R64_SE BOM_R64_SW BOM_R64_NW BOM_ROCI BOM_POCI BOM_EYE BOM_POS_METHOD BOM_PRES_METHOD NADI_LAT NADI_LON NADI_CAT NADI_WIND NADI_PRES WELLINGTON_LAT WELLINGTON_LON WELLINGTON_WIND WELLINGTON_PRES DS824_LAT DS824_LON DS824_STAGE DS824_WIND DS824_PRES TD9636_LAT TD9636_LON TD9636_STAGE TD9636_WIND TD9636_PRES TD9635_LAT TD9635_LON TD9635_WIND TD9635_PRES TD9635_ROCI NEUMANN_LAT NEUMANN_LON NEUMANN_CLASS NEUMANN_WIND NEUMANN_PRES MLC_LAT MLC_LON MLC_CLASS MLC_WIND MLC_PRES USA_GUST BOM_GUST BOM_GUST_PER REUNION_GUST REUNION_GUST_PER USA_SEAHGT USA_SEARAD_NE USA_SEARAD_SE USA_SEARAD_SW USA_SEARAD_NW STORM_SPEED STORM_DIR
1969027S11113 1969 7 SI WA NOT_NAMED 1969-01-26 23:00:00 NR -11.0000 113.100 main 279 279 __________O___ -1 -11.0000 113.100 7 2 0
1969027S11113 1969 7 SI WA NOT_NAMED 1969-01-27 00:00:00 TS -11.0197 113.079 main 279 279 O________OP___ jtwc_sh SH161969 -11.0000 113.100 -1 -11.0000 113.100 TC -11.0395 113.058 7 3 226
1969027S11113 1969 7 SI WA NOT_NAMED 1969-01-27 03:00:00 TS -11.1609 112.935 main 307 307 P________PP___ SH161969 -11.1625 112.938 -1 -11.1625 112.938 TC -11.1588 112.931 7 4 225
1969027S11113 1969 7 SI WA NOT_NAMED 1969-01-27 06:00:00 TS -11.2926 112.802 main 321 321 O________OP___ jtwc_sh SH161969 -11.3000 112.800 -1 -11.3000 112.800 TC -11.2814 112.806 7 3 225
1969027S11113 1969 7 SI WA NOT_NAMED 1969-01-27 09:00:00 TS -11.4033 112.694 main 336 336 P________PP___ SH161969 -11.4000 112.700 -1 -11.4000 112.700 TC -11.4099 112.682 7 3 223
1969027S11113 1969 7 SI WA NOT_NAMED 1969-01-27 11:00:00 TS -11.4757 112.624 main 347 347 P________PO___ SH161969 -11.4636 112.636 -1 -11.4636 112.636 TC -11.5000 112.600 7 3 223
1969027S11113 1969 7 SI WA NOT_NAMED 1969-01-27 12:00:00 TS -11.5155 112.587 main 347 347 O________OP___ jtwc_sh SH161969 -11.5000 112.600 -1 -11.5000 112.600 TC -11.5466 112.560 7 4 223
1969027S11113 1969 7 SI WA NOT_NAMED 1969-01-27 15:00:00 TS -11.6628 112.443 main 371 371 P________PP___ SH161969 -11.6500 112.443 -1 -11.6500 112.443 TC -11.6884 112.443 7 4 223
1969027S11113 1969 7 SI WA NOT_NAMED 1969-01-27 18:00:00 TS -11.8078 112.312 main 383 383 O________OP___ jtwc_sh SH161969 -11.8000 112.300 -1 -11.8000 112.300 TC -11.8235 112.336 7 3 217
1969027S11113 1969 7 SI WA NOT_NAMED 1969-01-27 21:00:00 TS -11.9232 112.239 main 395 395 P________PP___ SH161969 -11.9150 112.235 -1 -11.9150 112.235 TC -11.9395 112.247 7 2 211
1969027S11113 1969 7 SI WA NOT_NAMED 1969-01-27 23:00:00 TS -11.9833 112.208 main 406 406 P________PO___ SH161969 -11.9750 112.211 -1 -11.9750 112.211 TC -12.0000 112.200 7 2 210
1969027S11113 1969 7 SI WA NOT_NAMED 1969-01-28 00:00:00 TS -12.0072 112.194 main 406 406 O________OP___ jtwc_sh SH161969 -12.0000 112.200 -1 -12.0000 112.200 TC -12.0217 112.182 7 2 219
1969027S11113 1969 7 SI WA NOT_NAMED 1969-01-28 03:00:00 TS -12.0650 112.143 main 416 416 P________PP___ SH161969 -12.0650 112.143 -1 -12.0650 112.143 TC -12.0649 112.143 7 1 226
1969027S11113 1969 7 SI WA NOT_NAMED 1969-01-28 06:00:00 TS -12.0949 112.107 main 416 416 O________OP___ jtwc_sh SH161969 -12.1000 112.100 -1 -12.1000 112.100 TC -12.0848 112.122 7 1 234
1969027S11113 1969 7 SI WA NOT_NAMED 1969-01-28 09:00:00 TS -12.0979 112.103 main 416 416 P________PP___ SH161969 -12.1000 112.100 -1 -12.1000 112.100 TC -12.0938 112.109 7 0 0
1969027S11113 1969 7 SI WA NOT_NAMED 1969-01-28 11:00:00 TS -12.0979 112.102 main 416 416 P________PO___ SH161969 -12.0969 112.103 -1 -12.0969 112.103 TC -12.1000 112.100 7 0 0
1969027S11113 1969 7 SI WA NOT_NAMED 1969-01-28 12:00:00 TS -12.0991 112.103 main 416 416 O________OP___ jtwc_sh SH161969 -12.1000 112.100 -1 -12.1000 112.100 TC -12.0972 112.110 7 1 220
1969027S11113 1969 7 SI WA NOT_NAMED 1969-01-28 15:00:00 TS -12.1281 112.083 main 416 416 P________PP___ SH161969 -12.1500 112.050 -1 -12.1500 112.050 TC -12.0842 112.148 7 1 225
1969027S11113 1969 7 SI WA NOT_NAMED 1969-01-28 18:00:00 TS -12.1621 112.054 main 427 427 O________OP___ jtwc_sh SH161969 -12.2000 112.000 -1 -12.2000 112.000 TC -12.0862 112.161 7 0 223
1969027S11113 1969 7 SI WA NOT_NAMED 1969-01-28 21:00:00 TS -12.1572 112.064 main 427 426 P________PP___ SH161969 -12.1699 112.045 -1 -12.1699 112.045 TC -12.1317 112.102 7 0 239
1969027S11113 1969 7 SI WA NOT_NAMED 1969-01-28 23:00:00 TS -12.1827 112.025 main 426 426 P________PO___ SH161969 -12.1740 112.037 -1 -12.1740 112.037 TC -12.2000 112.000 7 2 234
1969027S11113 1969 7 SI WA NOT_NAMED 1969-01-29 00:00:00 TS -12.2186 111.974 main 426 426 O________OP___ jtwc_sh SH161969 -12.2000 112.000 -1 -12.2000 112.000 TC -12.2557 111.923 7 6 233
1969027S11113 1969 7 SI WA NOT_NAMED 1969-01-29 03:00:00 TS -12.4277 111.693 main 448 448 P________PP___ SH161969 -12.4049 111.732 -1 -12.4049 111.732 TC -12.4732 111.613 7 9 234
1969027S11113 1969 7 SI WA NOT_NAMED 1969-01-29 06:00:00 TS -12.7133 111.269 main 483 483 O________OP___ jtwc_sh SH161969 -12.7000 111.300 -1 -12.7000 111.300 TC -12.7398 111.206 7 11 237
1969027S11113 1969 7 SI WA NOT_NAMED 1969-01-29 09:00:00 TS -13.0121 110.760 main 524 524 P________PP___ SH161969 -13.0076 110.773 -1 -13.0076 110.773 TC -13.0211 110.735 7 12 240
1969027S11113 1969 7 SI WA NOT_NAMED 1969-01-29 11:00:00 TS -13.2059 110.392 main 555 555 P________PO___ SH161969 -13.2088 110.388 -1 -13.2088 110.388 TC -13.2000 110.400 7 12 243
1969027S11113 1969 7 SI WA NOT_NAMED 1969-01-29 12:00:00 TS -13.2878 110.214 main 570 570 O________OP___ jtwc_sh SH161969 -13.3000 110.200 -1 -13.3000 110.200 TC -13.2635 110.243 7 11 247
1969027S11113 1969 7 SI WA NOT_NAMED 1969-01-29 15:00:00 TS -13.4895 109.714 main 603 603 P________PP___ SH161969 -13.5148 109.700 -1 -13.5148 109.700 TC -13.4390 109.744 7 11 249
1969027S11113 1969 7 SI WA NOT_NAMED 1969-01-29 18:00:00 TS -13.6720 109.205 main 637 637 O________OP___ jtwc_sh SH161969 -13.7000 109.200 -1 -13.7000 109.200 TC -13.6161 109.215 7 11 250
1969027S11113 1969 7 SI WA NOT_NAMED 1969-01-29 21:00:00 TS -13.8553 108.661 main 674 674 P________PP___ SH161969 -13.8699 108.657 -1 -13.8699 108.657 TC -13.8261 108.668 7 11 249
1969027S11113 1969 7 SI WA NOT_NAMED 1969-01-29 23:00:00 TS -14.0070 108.291 main 694 694 P________PO___ SH161969 -14.0104 108.286 -1 -14.0104 108.286 TC -14.0000 108.300 7 12 245
1969027S11113 1969 7 SI WA NOT_NAMED 1969-01-30 00:00:00 TS -14.1066 108.110 main 706 706 O________OP___ jtwc_sh SH161969 -14.1000 108.100 -1 -14.1000 108.100 TC -14.1198 108.129 7 13 235
1969027S11113 1969 7 SI WA NOT_NAMED 1969-01-30 03:00:00 TS -14.4895 107.571 main 755 755 P________PP___ SH161969 -14.4699 107.550 -1 -14.4699 107.550 TC -14.5289 107.613 7 13 232
1969027S11113 1969 7 SI WA NOT_NAMED 1969-01-30 06:00:00 TS -14.9223 107.027 main 809 809 O________OP___ jtwc_sh SH161969 -14.9000 107.000 -1 -14.9000 107.000 TC -14.9668 107.080 7 14 231
1969027S11113 1969 7 SI WA NOT_NAMED 1969-01-30 09:00:00 TS -15.3496 106.485 main 862 862 P________PP___ SH161969 -15.3372 106.473 -1 -15.3372 106.473 TC -15.3744 106.510 7 13 233
1969027S11113 1969 7 SI WA NOT_NAMED 1969-01-30 11:00:00 TS -15.5967 106.100 main 903 903 P________PO___ SH161969 -15.5950 106.100 -1 -15.5950 106.100 TC -15.6000 106.100 7 13 239
1969027S11113 1969 7 SI WA NOT_NAMED 1969-01-30 12:00:00 TS -15.6972 105.894 main 919 919 O________OP___ jtwc_sh SH161969 -15.7000 105.900 -1 -15.7000 105.900 TC -15.6929 105.884 7 14 250
1969027S11113 1969 7 SI WA NOT_NAMED 1969-01-30 15:00:00 TS -15.8989 105.215 main 960 960 P________PP___ SH161969 -15.9006 105.230 -1 -15.9006 105.230 TC -15.8971 105.199 7 14 257
1969027S11113 1969 7 SI WA NOT_NAMED 1969-01-30 18:00:00 TS -16.0083 104.482 main 985 985 O________OP___ jtwc_sh SH161969 -16.0000 104.500 -1 -16.0000 104.500 TC -16.0138 104.469 7 15 263
1969027S11113 1969 7 SI WA NOT_NAMED 1969-01-30 21:00:00 NR -16.0747 103.712 main 1017 1017 __________P___ SH161969 -1 TC -16.0747 103.712 7 15 266
1969027S11113 1969 7 SI WA NOT_NAMED 1969-01-30 23:00:00 NR -16.1000 103.200 main 1034 __________O___ SH161969 -1 TC -16.1000 103.200 7 15 267

IBTrACS Databaseについて

本データベースは、米国NOAAが公開する1842年以降の世界の熱帯低気圧のベストトラックデータアーカイブInternational Best Track Archive for Climate Stewardship (IBTrACS)を、ウェブで閲覧しやすい形式に変換したものです。

最終更新日:2021-12-01